sensor_id;sensor_type;location;lat;lon;timestamp;P1;durP1;ratioP1;P2;durP2;ratioP2
17214;SDS011;8723;51.502;6.918;2022-09-21T00:00:46;6.05;;;3.88;;
17214;SDS011;8723;51.502;6.918;2022-09-21T00:03:13;5.45;;;3.92;;
17214;SDS011;8723;51.502;6.918;2022-09-21T00:05:41;6.40;;;3.70;;
17214;SDS011;8723;51.502;6.918;2022-09-21T00:08:09;6.50;;;3.70;;
17214;SDS011;8723;51.502;6.918;2022-09-21T00:10:39;5.82;;;3.30;;
17214;SDS011;8723;51.502;6.918;2022-09-21T00:13:06;5.55;;;3.47;;
17214;SDS011;8723;51.502;6.918;2022-09-21T00:15:35;6.30;;;3.33;;
17214;SDS011;8723;51.502;6.918;2022-09-21T00:18:05;5.40;;;3.73;;
17214;SDS011;8723;51.502;6.918;2022-09-21T00:20:33;5.65;;;3.20;;
17214;SDS011;8723;51.502;6.918;2022-09-21T00:23:00;6.43;;;3.63;;
17214;SDS011;8723;51.502;6.918;2022-09-21T00:25:27;5.97;;;3.40;;
17214;SDS011;8723;51.502;6.918;2022-09-21T00:27:56;5.25;;;3.15;;
17214;SDS011;8723;51.502;6.918;2022-09-21T00:30:23;8.02;;;3.30;;
17214;SDS011;8723;51.502;6.918;2022-09-21T00:32:52;5.32;;;3.15;;
17214;SDS011;8723;51.502;6.918;2022-09-21T00:35:20;5.13;;;3.35;;
17214;SDS011;8723;51.502;6.918;2022-09-21T00:37:48;6.80;;;3.15;;
17214;SDS011;8723;51.502;6.918;2022-09-21T00:40:15;5.45;;;2.70;;
17214;SDS011;8723;51.502;6.918;2022-09-21T00:42:43;6.07;;;3.05;;
17214;SDS011;8723;51.502;6.918;2022-09-21T00:45:12;5.30;;;2.33;;
17214;SDS011;8723;51.502;6.918;2022-09-21T00:47:45;3.78;;;2.88;;
17214;SDS011;8723;51.502;6.918;2022-09-21T00:50:15;3.72;;;2.90;;
17214;SDS011;8723;51.502;6.918;2022-09-21T00:52:46;3.65;;;3.00;;
17214;SDS011;8723;51.502;6.918;2022-09-21T00:55:15;4.38;;;3.40;;
17214;SDS011;8723;51.502;6.918;2022-09-21T00:57:43;4.93;;;3.50;;
17214;SDS011;8723;51.502;6.918;2022-09-21T01:00:16;6.60;;;3.90;;
17214;SDS011;8723;51.502;6.918;2022-09-21T01:02:43;7.03;;;4.20;;
17214;SDS011;8723;51.502;6.918;2022-09-21T01:05:11;6.50;;;4.30;;
17214;SDS011;8723;51.502;6.918;2022-09-21T01:07:39;7.82;;;4.68;;
17214;SDS011;8723;51.502;6.918;2022-09-21T01:10:09;6.30;;;4.38;;
17214;SDS011;8723;51.502;6.918;2022-09-21T01:12:44;6.22;;;3.97;;
17214;SDS011;8723;51.502;6.918;2022-09-21T01:18:02;7.18;;;3.67;;
17214;SDS011;8723;51.502;6.918;2022-09-21T01:23:21;5.13;;;3.42;;
17214;SDS011;8723;51.502;6.918;2022-09-21T01:25:58;5.80;;;3.80;;
17214;SDS011;8723;51.502;6.918;2022-09-21T01:28:28;5.60;;;3.70;;
17214;SDS011;8723;51.502;6.918;2022-09-21T01:31:02;4.50;;;3.58;;
17214;SDS011;8723;51.502;6.918;2022-09-21T01:33:31;5.85;;;3.42;;
17214;SDS011;8723;51.502;6.918;2022-09-21T01:36:00;4.78;;;3.85;;
17214;SDS011;8723;51.502;6.918;2022-09-21T01:38:30;6.13;;;3.93;;
17214;SDS011;8723;51.502;6.918;2022-09-21T01:40:59;5.22;;;4.00;;
17214;SDS011;8723;51.502;6.918;2022-09-21T01:43:30;6.90;;;4.32;;
17214;SDS011;8723;51.502;6.918;2022-09-21T01:45:57;8.05;;;4.60;;
17214;SDS011;8723;51.502;6.918;2022-09-21T01:48:28;6.25;;;4.55;;
17214;SDS011;8723;51.502;6.918;2022-09-21T01:50:57;7.72;;;4.65;;
17214;SDS011;8723;51.502;6.918;2022-09-21T01:53:27;7.37;;;4.90;;
17214;SDS011;8723;51.502;6.918;2022-09-21T01:55:57;9.53;;;5.63;;
17214;SDS011;8723;51.502;6.918;2022-09-21T01:58:26;7.80;;;5.07;;
17214;SDS011;8723;51.502;6.918;2022-09-21T02:00:56;9.88;;;4.82;;
17214;SDS011;8723;51.502;6.918;2022-09-21T02:03:25;7.65;;;4.70;;
17214;SDS011;8723;51.502;6.918;2022-09-21T02:05:55;7.47;;;4.80;;
17214;SDS011;8723;51.502;6.918;2022-09-21T02:08:23;8.68;;;4.95;;
17214;SDS011;8723;51.502;6.918;2022-09-21T02:10:52;6.05;;;5.18;;
17214;SDS011;8723;51.502;6.918;2022-09-21T02:13:20;6.97;;;5.10;;
17214;SDS011;8723;51.502;6.918;2022-09-21T02:15:52;7.78;;;5.18;;
17214;SDS011;8723;51.502;6.918;2022-09-21T02:18:26;8.20;;;5.07;;
17214;SDS011;8723;51.502;6.918;2022-09-21T02:20:58;7.07;;;5.22;;
17214;SDS011;8723;51.502;6.918;2022-09-21T02:23:28;7.83;;;5.80;;
17214;SDS011;8723;51.502;6.918;2022-09-21T02:26:01;8.93;;;5.55;;
17214;SDS011;8723;51.502;6.918;2022-09-21T02:28:32;8.25;;;5.28;;
17214;SDS011;8723;51.502;6.918;2022-09-21T02:31:05;5.90;;;5.32;;
17214;SDS011;8723;51.502;6.918;2022-09-21T02:33:40;7.55;;;5.05;;
17214;SDS011;8723;51.502;6.918;2022-09-21T02:36:14;5.20;;;4.35;;
17214;SDS011;8723;51.502;6.918;2022-09-21T02:38:50;7.25;;;4.90;;
17214;SDS011;8723;51.502;6.918;2022-09-21T02:41:19;7.18;;;5.20;;
17214;SDS011;8723;51.502;6.918;2022-09-21T02:43:49;7.28;;;5.40;;
17214;SDS011;8723;51.502;6.918;2022-09-21T02:46:18;7.00;;;5.38;;
17214;SDS011;8723;51.502;6.918;2022-09-21T02:48:47;6.97;;;5.53;;
17214;SDS011;8723;51.502;6.918;2022-09-21T02:51:17;8.10;;;5.65;;
17214;SDS011;8723;51.502;6.918;2022-09-21T02:53:45;7.97;;;5.65;;
17214;SDS011;8723;51.502;6.918;2022-09-21T02:56:13;8.27;;;5.60;;
17214;SDS011;8723;51.502;6.918;2022-09-21T02:58:42;10.20;;;6.28;;
17214;SDS011;8723;51.502;6.918;2022-09-21T03:01:11;7.90;;;6.07;;
17214;SDS011;8723;51.502;6.918;2022-09-21T03:03:39;9.02;;;5.60;;
17214;SDS011;8723;51.502;6.918;2022-09-21T03:06:07;8.13;;;5.80;;
17214;SDS011;8723;51.502;6.918;2022-09-21T03:08:36;7.30;;;5.47;;
17214;SDS011;8723;51.502;6.918;2022-09-21T03:11:03;8.07;;;5.40;;
17214;SDS011;8723;51.502;6.918;2022-09-21T03:13:31;6.80;;;5.65;;
17214;SDS011;8723;51.502;6.918;2022-09-21T03:15:59;8.68;;;5.95;;
17214;SDS011;8723;51.502;6.918;2022-09-21T03:18:27;8.30;;;5.97;;
17214;SDS011;8723;51.502;6.918;2022-09-21T03:20:54;10.13;;;6.15;;
17214;SDS011;8723;51.502;6.918;2022-09-21T03:23:21;8.33;;;5.93;;
17214;SDS011;8723;51.502;6.918;2022-09-21T03:25:50;6.57;;;5.57;;
17214;SDS011;8723;51.502;6.918;2022-09-21T03:28:18;10.37;;;6.13;;
17214;SDS011;8723;51.502;6.918;2022-09-21T03:30:46;8.90;;;5.75;;
17214;SDS011;8723;51.502;6.918;2022-09-21T03:33:14;8.25;;;6.68;;
17214;SDS011;8723;51.502;6.918;2022-09-21T03:35:41;6.82;;;6.10;;
17214;SDS011;8723;51.502;6.918;2022-09-21T03:38:09;8.38;;;6.00;;
17214;SDS011;8723;51.502;6.918;2022-09-21T03:40:36;8.55;;;6.70;;
17214;SDS011;8723;51.502;6.918;2022-09-21T03:43:05;8.23;;;6.43;;
17214;SDS011;8723;51.502;6.918;2022-09-21T03:45:32;10.45;;;6.78;;
17214;SDS011;8723;51.502;6.918;2022-09-21T03:48:00;7.82;;;6.60;;
17214;SDS011;8723;51.502;6.918;2022-09-21T03:50:27;7.93;;;6.45;;
17214;SDS011;8723;51.502;6.918;2022-09-21T03:52:55;8.63;;;6.30;;
17214;SDS011;8723;51.502;6.918;2022-09-21T03:55:22;9.32;;;6.43;;
17214;SDS011;8723;51.502;6.918;2022-09-21T03:57:49;7.53;;;6.82;;
17214;SDS011;8723;51.502;6.918;2022-09-21T04:00:18;8.90;;;7.57;;
17214;SDS011;8723;51.502;6.918;2022-09-21T04:02:45;9.95;;;7.20;;
17214;SDS011;8723;51.502;6.918;2022-09-21T04:05:14;8.98;;;7.75;;
17214;SDS011;8723;51.502;6.918;2022-09-21T04:07:41;8.95;;;7.85;;
17214;SDS011;8723;51.502;6.918;2022-09-21T04:10:10;9.77;;;7.45;;
17214;SDS011;8723;51.502;6.918;2022-09-21T04:12:38;11.00;;;7.65;;
17214;SDS011;8723;51.502;6.918;2022-09-21T04:15:08;8.70;;;7.57;;
17214;SDS011;8723;51.502;6.918;2022-09-21T04:17:37;10.90;;;7.97;;
17214;SDS011;8723;51.502;6.918;2022-09-21T04:20:04;10.93;;;8.70;;
17214;SDS011;8723;51.502;6.918;2022-09-21T04:22:32;12.30;;;8.60;;
17214;SDS011;8723;51.502;6.918;2022-09-21T04:25:00;9.10;;;8.00;;
17214;SDS011;8723;51.502;6.918;2022-09-21T04:27:29;9.95;;;7.80;;
17214;SDS011;8723;51.502;6.918;2022-09-21T04:29:56;11.52;;;8.23;;
17214;SDS011;8723;51.502;6.918;2022-09-21T04:32:23;9.77;;;8.35;;
17214;SDS011;8723;51.502;6.918;2022-09-21T04:34:52;10.30;;;8.50;;
17214;SDS011;8723;51.502;6.918;2022-09-21T04:37:19;11.82;;;8.30;;
17214;SDS011;8723;51.502;6.918;2022-09-21T04:39:46;12.52;;;8.10;;
17214;SDS011;8723;51.502;6.918;2022-09-21T04:42:14;9.88;;;8.27;;
17214;SDS011;8723;51.502;6.918;2022-09-21T04:44:41;12.13;;;8.77;;
17214;SDS011;8723;51.502;6.918;2022-09-21T04:47:08;10.23;;;8.70;;
17214;SDS011;8723;51.502;6.918;2022-09-21T04:49:35;9.60;;;8.40;;
17214;SDS011;8723;51.502;6.918;2022-09-21T04:52:04;9.75;;;8.00;;
17214;SDS011;8723;51.502;6.918;2022-09-21T04:54:32;11.57;;;8.30;;
17214;SDS011;8723;51.502;6.918;2022-09-21T04:56:59;9.40;;;8.10;;
17214;SDS011;8723;51.502;6.918;2022-09-21T04:59:26;10.35;;;8.30;;
17214;SDS011;8723;51.502;6.918;2022-09-21T05:01:53;9.93;;;8.70;;
17214;SDS011;8723;51.502;6.918;2022-09-21T05:04:20;12.30;;;8.60;;
17214;SDS011;8723;51.502;6.918;2022-09-21T05:06:47;11.80;;;8.50;;
17214;SDS011;8723;51.502;6.918;2022-09-21T05:09:16;9.73;;;7.97;;
17214;SDS011;8723;51.502;6.918;2022-09-21T05:12:00;10.30;;;8.93;;
17214;SDS011;8723;51.502;6.918;2022-09-21T05:14:28;11.30;;;9.00;;
17214;SDS011;8723;51.502;6.918;2022-09-21T05:16:55;9.93;;;8.77;;
17214;SDS011;8723;51.502;6.918;2022-09-21T05:19:22;9.95;;;8.93;;
17214;SDS011;8723;51.502;6.918;2022-09-21T05:21:49;10.13;;;8.40;;
17214;SDS011;8723;51.502;6.918;2022-09-21T05:24:18;11.75;;;8.77;;
17214;SDS011;8723;51.502;6.918;2022-09-21T05:26:45;10.85;;;9.13;;
17214;SDS011;8723;51.502;6.918;2022-09-21T05:29:12;11.80;;;9.02;;
17214;SDS011;8723;51.502;6.918;2022-09-21T05:31:41;11.65;;;9.07;;
17214;SDS011;8723;51.502;6.918;2022-09-21T05:34:15;10.25;;;8.85;;
17214;SDS011;8723;51.502;6.918;2022-09-21T05:36:45;9.85;;;8.32;;
17214;SDS011;8723;51.502;6.918;2022-09-21T05:39:14;10.10;;;9.07;;
17214;SDS011;8723;51.502;6.918;2022-09-21T05:41:43;9.93;;;8.82;;
17214;SDS011;8723;51.502;6.918;2022-09-21T05:44:11;9.80;;;8.80;;
17214;SDS011;8723;51.502;6.918;2022-09-21T05:46:40;11.93;;;8.90;;
17214;SDS011;8723;51.502;6.918;2022-09-21T05:49:10;9.90;;;8.82;;
17214;SDS011;8723;51.502;6.918;2022-09-21T05:51:44;10.50;;;9.13;;
17214;SDS011;8723;51.502;6.918;2022-09-21T05:54:16;10.65;;;9.55;;
17214;SDS011;8723;51.502;6.918;2022-09-21T05:56:47;10.23;;;9.13;;
17214;SDS011;8723;51.502;6.918;2022-09-21T05:59:29;11.93;;;9.43;;
17214;SDS011;8723;51.502;6.918;2022-09-21T06:02:00;9.82;;;8.82;;
17214;SDS011;8723;51.502;6.918;2022-09-21T06:04:30;9.82;;;8.93;;
17214;SDS011;8723;51.502;6.918;2022-09-21T06:06:57;10.35;;;8.90;;
17214;SDS011;8723;51.502;6.918;2022-09-21T06:09:24;11.48;;;9.65;;
17214;SDS011;8723;51.502;6.918;2022-09-21T06:11:53;10.98;;;9.70;;
17214;SDS011;8723;51.502;6.918;2022-09-21T06:14:20;11.40;;;9.73;;
17214;SDS011;8723;51.502;6.918;2022-09-21T06:16:50;11.18;;;10.07;;
17214;SDS011;8723;51.502;6.918;2022-09-21T06:19:18;11.02;;;9.38;;
17214;SDS011;8723;51.502;6.918;2022-09-21T06:21:45;12.35;;;9.70;;
17214;SDS011;8723;51.502;6.918;2022-09-21T06:24:12;10.57;;;9.47;;
17214;SDS011;8723;51.502;6.918;2022-09-21T06:26:39;11.45;;;9.85;;
17214;SDS011;8723;51.502;6.918;2022-09-21T06:29:08;10.95;;;9.63;;
17214;SDS011;8723;51.502;6.918;2022-09-21T06:31:35;13.00;;;9.73;;
17214;SDS011;8723;51.502;6.918;2022-09-21T06:34:03;11.27;;;10.13;;
17214;SDS011;8723;51.502;6.918;2022-09-21T06:36:30;13.90;;;10.00;;
17214;SDS011;8723;51.502;6.918;2022-09-21T06:38:57;15.35;;;11.27;;
17214;SDS011;8723;51.502;6.918;2022-09-21T06:41:24;14.93;;;11.00;;
17214;SDS011;8723;51.502;6.918;2022-09-21T06:43:52;16.77;;;11.32;;
17214;SDS011;8723;51.502;6.918;2022-09-21T06:46:22;19.25;;;12.43;;
17214;SDS011;8723;51.502;6.918;2022-09-21T06:48:49;19.50;;;12.50;;
17214;SDS011;8723;51.502;6.918;2022-09-21T06:51:16;20.15;;;12.95;;
17214;SDS011;8723;51.502;6.918;2022-09-21T06:53:45;18.02;;;12.07;;
17214;SDS011;8723;51.502;6.918;2022-09-21T06:56:13;19.30;;;13.13;;
17214;SDS011;8723;51.502;6.918;2022-09-21T06:58:40;19.08;;;12.13;;
17214;SDS011;8723;51.502;6.918;2022-09-21T07:01:08;18.83;;;12.40;;
17214;SDS011;8723;51.502;6.918;2022-09-21T07:03:37;21.20;;;12.65;;
17214;SDS011;8723;51.502;6.918;2022-09-21T07:06:05;20.40;;;11.80;;
17214;SDS011;8723;51.502;6.918;2022-09-21T07:08:33;15.05;;;11.10;;
17214;SDS011;8723;51.502;6.918;2022-09-21T07:11:00;18.63;;;11.67;;
17214;SDS011;8723;51.502;6.918;2022-09-21T07:13:27;15.30;;;11.00;;
17214;SDS011;8723;51.502;6.918;2022-09-21T07:15:54;14.15;;;10.48;;
17214;SDS011;8723;51.502;6.918;2022-09-21T07:18:22;17.23;;;11.33;;
17214;SDS011;8723;51.502;6.918;2022-09-21T07:20:50;13.60;;;10.00;;
17214;SDS011;8723;51.502;6.918;2022-09-21T07:23:18;14.23;;;9.85;;
17214;SDS011;8723;51.502;6.918;2022-09-21T07:25:47;15.80;;;11.23;;
17214;SDS011;8723;51.502;6.918;2022-09-21T07:28:16;12.82;;;9.52;;
17214;SDS011;8723;51.502;6.918;2022-09-21T07:30:44;11.82;;;9.55;;
17214;SDS011;8723;51.502;6.918;2022-09-21T07:33:11;11.93;;;9.27;;
17214;SDS011;8723;51.502;6.918;2022-09-21T07:35:38;13.30;;;8.82;;
17214;SDS011;8723;51.502;6.918;2022-09-21T07:38:06;11.35;;;8.20;;
17214;SDS011;8723;51.502;6.918;2022-09-21T07:40:34;14.45;;;10.38;;
17214;SDS011;8723;51.502;6.918;2022-09-21T07:43:01;10.00;;;8.13;;
17214;SDS011;8723;51.502;6.918;2022-09-21T07:45:28;10.20;;;7.60;;
17214;SDS011;8723;51.502;6.918;2022-09-21T07:48:00;15.10;;;9.00;;
17214;SDS011;8723;51.502;6.918;2022-09-21T07:50:27;8.52;;;6.95;;
17214;SDS011;8723;51.502;6.918;2022-09-21T07:52:54;10.05;;;7.30;;
17214;SDS011;8723;51.502;6.918;2022-09-21T07:55:23;10.68;;;7.97;;
17214;SDS011;8723;51.502;6.918;2022-09-21T07:57:50;7.15;;;6.00;;
17214;SDS011;8723;51.502;6.918;2022-09-21T08:00:35;8.05;;;5.43;;
17214;SDS011;8723;51.502;6.918;2022-09-21T08:03:03;7.93;;;5.97;;
17214;SDS011;8723;51.502;6.918;2022-09-21T08:05:30;9.35;;;7.30;;
17214;SDS011;8723;51.502;6.918;2022-09-21T08:07:57;12.07;;;7.63;;
17214;SDS011;8723;51.502;6.918;2022-09-21T08:10:26;10.40;;;7.45;;
17214;SDS011;8723;51.502;6.918;2022-09-21T08:12:54;7.43;;;5.88;;
17214;SDS011;8723;51.502;6.918;2022-09-21T08:15:21;12.93;;;9.52;;
17214;SDS011;8723;51.502;6.918;2022-09-21T08:17:48;11.80;;;7.20;;
17214;SDS011;8723;51.502;6.918;2022-09-21T08:20:17;8.57;;;6.32;;
17214;SDS011;8723;51.502;6.918;2022-09-21T08:22:44;7.20;;;6.18;;
17214;SDS011;8723;51.502;6.918;2022-09-21T08:25:11;6.27;;;5.27;;
17214;SDS011;8723;51.502;6.918;2022-09-21T08:27:40;8.10;;;7.30;;
17214;SDS011;8723;51.502;6.918;2022-09-21T08:30:07;10.67;;;7.97;;
17214;SDS011;8723;51.502;6.918;2022-09-21T08:32:37;7.13;;;6.43;;
17214;SDS011;8723;51.502;6.918;2022-09-21T08:35:05;8.50;;;7.27;;
17214;SDS011;8723;51.502;6.918;2022-09-21T08:37:33;7.88;;;6.30;;
17214;SDS011;8723;51.502;6.918;2022-09-21T08:40:02;10.43;;;7.50;;
17214;SDS011;8723;51.502;6.918;2022-09-21T08:42:32;10.65;;;7.93;;
17214;SDS011;8723;51.502;6.918;2022-09-21T08:45:05;6.73;;;6.03;;
17214;SDS011;8723;51.502;6.918;2022-09-21T08:47:35;8.43;;;4.85;;
17214;SDS011;8723;51.502;6.918;2022-09-21T08:50:04;6.38;;;4.50;;
17214;SDS011;8723;51.502;6.918;2022-09-21T08:52:32;5.88;;;4.32;;
17214;SDS011;8723;51.502;6.918;2022-09-21T08:55:00;11.30;;;6.50;;
17214;SDS011;8723;51.502;6.918;2022-09-21T08:57:29;7.78;;;5.47;;
17214;SDS011;8723;51.502;6.918;2022-09-21T08:59:57;6.17;;;4.93;;
17214;SDS011;8723;51.502;6.918;2022-09-21T09:02:44;3.97;;;3.53;;
17214;SDS011;8723;51.502;6.918;2022-09-21T09:05:25;7.55;;;4.18;;
17214;SDS011;8723;51.502;6.918;2022-09-21T09:08:06;5.50;;;3.38;;
17214;SDS011;8723;51.502;6.918;2022-09-21T09:10:37;3.97;;;3.33;;
17214;SDS011;8723;51.502;6.918;2022-09-21T09:13:09;5.15;;;3.20;;
17214;SDS011;8723;51.502;6.918;2022-09-21T09:15:43;8.45;;;3.20;;
17214;SDS011;8723;51.502;6.918;2022-09-21T09:18:17;4.07;;;2.92;;
17214;SDS011;8723;51.502;6.918;2022-09-21T09:20:45;4.53;;;2.88;;
17214;SDS011;8723;51.502;6.918;2022-09-21T09:23:16;4.47;;;2.25;;
17214;SDS011;8723;51.502;6.918;2022-09-21T09:25:46;5.43;;;2.38;;
17214;SDS011;8723;51.502;6.918;2022-09-21T09:28:17;5.47;;;2.60;;
17214;SDS011;8723;51.502;6.918;2022-09-21T09:30:46;5.93;;;2.28;;
17214;SDS011;8723;51.502;6.918;2022-09-21T09:33:19;4.57;;;2.47;;
17214;SDS011;8723;51.502;6.918;2022-09-21T09:35:48;4.97;;;1.77;;
17214;SDS011;8723;51.502;6.918;2022-09-21T09:38:18;3.63;;;2.20;;
17214;SDS011;8723;51.502;6.918;2022-09-21T09:41:03;3.95;;;2.17;;
17214;SDS011;8723;51.502;6.918;2022-09-21T09:43:37;6.28;;;2.40;;
17214;SDS011;8723;51.502;6.918;2022-09-21T09:46:11;2.70;;;2.08;;
17214;SDS011;8723;51.502;6.918;2022-09-21T09:48:52;7.20;;;2.70;;
17214;SDS011;8723;51.502;6.918;2022-09-21T09:51:23;4.45;;;2.13;;
17214;SDS011;8723;51.502;6.918;2022-09-21T09:53:50;4.65;;;2.53;;
17214;SDS011;8723;51.502;6.918;2022-09-21T09:56:18;3.78;;;2.22;;
17214;SDS011;8723;51.502;6.918;2022-09-21T09:58:46;6.57;;;2.67;;
17214;SDS011;8723;51.502;6.918;2022-09-21T10:04:05;3.83;;;2.40;;
17214;SDS011;8723;51.502;6.918;2022-09-21T10:06:32;3.95;;;2.20;;
17214;SDS011;8723;51.502;6.918;2022-09-21T10:09:00;5.57;;;2.30;;
17214;SDS011;8723;51.502;6.918;2022-09-21T10:11:34;5.50;;;2.22;;
17214;SDS011;8723;51.502;6.918;2022-09-21T10:14:06;2.90;;;1.98;;
17214;SDS011;8723;51.502;6.918;2022-09-21T10:16:38;3.53;;;2.00;;
17214;SDS011;8723;51.502;6.918;2022-09-21T10:19:12;7.10;;;2.57;;
17214;SDS011;8723;51.502;6.918;2022-09-21T10:21:40;5.53;;;2.10;;
17214;SDS011;8723;51.502;6.918;2022-09-21T10:24:13;8.83;;;2.50;;
17214;SDS011;8723;51.502;6.918;2022-09-21T10:26:43;6.60;;;2.47;;
17214;SDS011;8723;51.502;6.918;2022-09-21T10:29:18;5.22;;;2.40;;
17214;SDS011;8723;51.502;6.918;2022-09-21T10:31:52;4.65;;;2.20;;
17214;SDS011;8723;51.502;6.918;2022-09-21T10:34:22;4.32;;;2.30;;
17214;SDS011;8723;51.502;6.918;2022-09-21T10:36:50;5.40;;;2.03;;
17214;SDS011;8723;51.502;6.918;2022-09-21T10:39:22;4.35;;;1.83;;
17214;SDS011;8723;51.502;6.918;2022-09-21T10:41:50;3.53;;;2.10;;
17214;SDS011;8723;51.502;6.918;2022-09-21T10:44:19;3.75;;;2.00;;
17214;SDS011;8723;51.502;6.918;2022-09-21T10:46:47;2.95;;;1.90;;
17214;SDS011;8723;51.502;6.918;2022-09-21T10:49:16;3.95;;;2.00;;
17214;SDS011;8723;51.502;6.918;2022-09-21T10:51:46;4.07;;;2.05;;
17214;SDS011;8723;51.502;6.918;2022-09-21T10:54:15;3.42;;;1.83;;
17214;SDS011;8723;51.502;6.918;2022-09-21T10:56:48;3.05;;;1.60;;
17214;SDS011;8723;51.502;6.918;2022-09-21T10:59:20;4.03;;;1.80;;
17214;SDS011;8723;51.502;6.918;2022-09-21T11:01:48;2.85;;;1.50;;
17214;SDS011;8723;51.502;6.918;2022-09-21T11:04:18;5.80;;;2.10;;
17214;SDS011;8723;51.502;6.918;2022-09-21T11:06:48;4.53;;;2.05;;
17214;SDS011;8723;51.502;6.918;2022-09-21T11:09:17;2.67;;;1.80;;
17214;SDS011;8723;51.502;6.918;2022-09-21T11:11:48;2.63;;;1.30;;
17214;SDS011;8723;51.502;6.918;2022-09-21T11:14:19;3.95;;;1.85;;
17214;SDS011;8723;51.502;6.918;2022-09-21T11:16:49;3.28;;;1.50;;
17214;SDS011;8723;51.502;6.918;2022-09-21T11:19:19;4.15;;;1.67;;
17214;SDS011;8723;51.502;6.918;2022-09-21T11:21:50;3.40;;;1.80;;
17214;SDS011;8723;51.502;6.918;2022-09-21T11:24:21;3.53;;;1.38;;
17214;SDS011;8723;51.502;6.918;2022-09-21T11:26:52;4.72;;;1.48;;
17214;SDS011;8723;51.502;6.918;2022-09-21T11:29:21;2.75;;;1.40;;
17214;SDS011;8723;51.502;6.918;2022-09-21T11:32:02;4.23;;;1.90;;
17214;SDS011;8723;51.502;6.918;2022-09-21T11:34:42;4.32;;;2.03;;
17214;SDS011;8723;51.502;6.918;2022-09-21T11:37:17;3.95;;;1.73;;
17214;SDS011;8723;51.502;6.918;2022-09-21T11:39:53;4.70;;;1.83;;
17214;SDS011;8723;51.502;6.918;2022-09-21T11:42:30;4.30;;;1.95;;
17214;SDS011;8723;51.502;6.918;2022-09-21T11:45:00;2.87;;;1.43;;
17214;SDS011;8723;51.502;6.918;2022-09-21T11:47:42;3.70;;;1.30;;
17214;SDS011;8723;51.502;6.918;2022-09-21T11:53:01;3.55;;;1.30;;
17214;SDS011;8723;51.502;6.918;2022-09-21T11:55:43;1.85;;;1.38;;
17214;SDS011;8723;51.502;6.918;2022-09-21T11:58:16;4.30;;;1.40;;
17214;SDS011;8723;51.502;6.918;2022-09-21T12:00:48;5.23;;;1.80;;
17214;SDS011;8723;51.502;6.918;2022-09-21T12:06:16;2.80;;;1.55;;
17214;SDS011;8723;51.502;6.918;2022-09-21T12:08:57;4.10;;;1.50;;
17214;SDS011;8723;51.502;6.918;2022-09-21T12:11:28;2.20;;;1.20;;
17214;SDS011;8723;51.502;6.918;2022-09-21T12:14:00;3.20;;;1.50;;
17214;SDS011;8723;51.502;6.918;2022-09-21T12:16:31;2.63;;;1.30;;
17214;SDS011;8723;51.502;6.918;2022-09-21T12:19:02;3.90;;;1.30;;
17214;SDS011;8723;51.502;6.918;2022-09-21T12:21:33;2.33;;;1.35;;
17214;SDS011;8723;51.502;6.918;2022-09-21T12:24:03;2.55;;;1.33;;
17214;SDS011;8723;51.502;6.918;2022-09-21T12:26:32;3.53;;;1.58;;
17214;SDS011;8723;51.502;6.918;2022-09-21T12:29:00;3.45;;;1.50;;
17214;SDS011;8723;51.502;6.918;2022-09-21T12:31:29;3.42;;;1.48;;
17214;SDS011;8723;51.502;6.918;2022-09-21T12:33:58;3.40;;;1.60;;
17214;SDS011;8723;51.502;6.918;2022-09-21T12:36:27;4.43;;;1.40;;
17214;SDS011;8723;51.502;6.918;2022-09-21T12:38:57;3.00;;;1.40;;
17214;SDS011;8723;51.502;6.918;2022-09-21T12:41:29;3.08;;;1.38;;
17214;SDS011;8723;51.502;6.918;2022-09-21T12:44:00;5.35;;;1.65;;
17214;SDS011;8723;51.502;6.918;2022-09-21T12:46:28;4.80;;;1.50;;
17214;SDS011;8723;51.502;6.918;2022-09-21T12:48:57;3.63;;;1.45;;
17214;SDS011;8723;51.502;6.918;2022-09-21T12:51:25;3.30;;;1.50;;
17214;SDS011;8723;51.502;6.918;2022-09-21T12:53:56;4.50;;;1.55;;
17214;SDS011;8723;51.502;6.918;2022-09-21T12:56:31;2.85;;;1.55;;
17214;SDS011;8723;51.502;6.918;2022-09-21T12:59:08;1.55;;;1.17;;
17214;SDS011;8723;51.502;6.918;2022-09-21T13:01:38;3.63;;;1.33;;
17214;SDS011;8723;51.502;6.918;2022-09-21T13:04:11;2.90;;;1.40;;
17214;SDS011;8723;51.502;6.918;2022-09-21T13:09:24;3.17;;;1.13;;
17214;SDS011;8723;51.502;6.918;2022-09-21T13:11:54;5.35;;;1.67;;
17214;SDS011;8723;51.502;6.918;2022-09-21T13:14:23;2.97;;;1.42;;
17214;SDS011;8723;51.502;6.918;2022-09-21T13:16:55;4.23;;;1.57;;
17214;SDS011;8723;51.502;6.918;2022-09-21T13:19:23;1.38;;;1.15;;
17214;SDS011;8723;51.502;6.918;2022-09-21T13:22:10;3.37;;;1.40;;
17214;SDS011;8723;51.502;6.918;2022-09-21T13:24:44;4.15;;;1.63;;
17214;SDS011;8723;51.502;6.918;2022-09-21T13:27:14;5.65;;;1.70;;
17214;SDS011;8723;51.502;6.918;2022-09-21T13:29:41;6.97;;;2.10;;
17214;SDS011;8723;51.502;6.918;2022-09-21T13:32:21;3.20;;;1.40;;
17214;SDS011;8723;51.502;6.918;2022-09-21T13:34:48;2.75;;;1.25;;
17214;SDS011;8723;51.502;6.918;2022-09-21T13:37:25;4.35;;;1.67;;
17214;SDS011;8723;51.502;6.918;2022-09-21T13:40:04;2.77;;;1.50;;
17214;SDS011;8723;51.502;6.918;2022-09-21T13:42:44;4.47;;;1.67;;
17214;SDS011;8723;51.502;6.918;2022-09-21T13:47:54;3.47;;;1.40;;
17214;SDS011;8723;51.502;6.918;2022-09-21T13:50:24;2.58;;;1.30;;
17214;SDS011;8723;51.502;6.918;2022-09-21T13:52:52;3.97;;;1.50;;
17214;SDS011;8723;51.502;6.918;2022-09-21T13:55:22;1.63;;;1.15;;
17214;SDS011;8723;51.502;6.918;2022-09-21T13:57:52;3.33;;;1.30;;
17214;SDS011;8723;51.502;6.918;2022-09-21T14:00:30;3.92;;;1.30;;
17214;SDS011;8723;51.502;6.918;2022-09-21T14:02:59;3.75;;;1.50;;
17214;SDS011;8723;51.502;6.918;2022-09-21T14:05:29;3.78;;;1.80;;
17214;SDS011;8723;51.502;6.918;2022-09-21T14:07:57;2.03;;;1.42;;
17214;SDS011;8723;51.502;6.918;2022-09-21T14:10:26;3.70;;;1.42;;
17214;SDS011;8723;51.502;6.918;2022-09-21T14:12:57;4.60;;;1.60;;
17214;SDS011;8723;51.502;6.918;2022-09-21T14:15:33;3.08;;;1.67;;
17214;SDS011;8723;51.502;6.918;2022-09-21T14:23:34;3.03;;;1.40;;
17214;SDS011;8723;51.502;6.918;2022-09-21T14:26:18;4.22;;;1.60;;
17214;SDS011;8723;51.502;6.918;2022-09-21T14:28:47;4.93;;;1.98;;
17214;SDS011;8723;51.502;6.918;2022-09-21T14:31:17;3.30;;;1.50;;
17214;SDS011;8723;51.502;6.918;2022-09-21T14:33:46;3.90;;;1.73;;
17214;SDS011;8723;51.502;6.918;2022-09-21T14:36:15;4.55;;;1.92;;
17214;SDS011;8723;51.502;6.918;2022-09-21T14:38:44;2.08;;;1.30;;
17214;SDS011;8723;51.502;6.918;2022-09-21T14:41:14;4.18;;;1.98;;
17214;SDS011;8723;51.502;6.918;2022-09-21T14:43:43;3.38;;;1.70;;
17214;SDS011;8723;51.502;6.918;2022-09-21T14:46:26;4.28;;;2.08;;
17214;SDS011;8723;51.502;6.918;2022-09-21T14:48:58;5.20;;;1.80;;
17214;SDS011;8723;51.502;6.918;2022-09-21T14:51:32;4.50;;;1.88;;
17214;SDS011;8723;51.502;6.918;2022-09-21T14:54:06;2.20;;;1.40;;
17214;SDS011;8723;51.502;6.918;2022-09-21T14:56:39;2.85;;;1.48;;
17214;SDS011;8723;51.502;6.918;2022-09-21T14:59:16;2.40;;;1.42;;
17214;SDS011;8723;51.502;6.918;2022-09-21T15:01:54;3.45;;;1.50;;
17214;SDS011;8723;51.502;6.918;2022-09-21T15:04:31;3.75;;;1.80;;
17214;SDS011;8723;51.502;6.918;2022-09-21T15:07:06;3.25;;;1.45;;
17214;SDS011;8723;51.502;6.918;2022-09-21T15:10:02;3.55;;;1.67;;
17214;SDS011;8723;51.502;6.918;2022-09-21T15:12:55;5.22;;;2.33;;
17214;SDS011;8723;51.502;6.918;2022-09-21T15:15:31;2.90;;;1.67;;
17214;SDS011;8723;51.502;6.918;2022-09-21T15:18:12;2.67;;;1.50;;
17214;SDS011;8723;51.502;6.918;2022-09-21T15:20:41;5.87;;;1.70;;
17214;SDS011;8723;51.502;6.918;2022-09-21T15:23:15;4.35;;;1.60;;
17214;SDS011;8723;51.502;6.918;2022-09-21T15:25:44;3.60;;;1.80;;
17214;SDS011;8723;51.502;6.918;2022-09-21T15:28:20;4.27;;;1.47;;
17214;SDS011;8723;51.502;6.918;2022-09-21T15:30:47;4.78;;;1.83;;
17214;SDS011;8723;51.502;6.918;2022-09-21T15:33:15;4.43;;;1.50;;
17214;SDS011;8723;51.502;6.918;2022-09-21T15:35:44;3.77;;;1.20;;
17214;SDS011;8723;51.502;6.918;2022-09-21T15:38:23;3.28;;;1.55;;
17214;SDS011;8723;51.502;6.918;2022-09-21T15:40:51;3.35;;;1.45;;